Time;durP1;ratioP1;P1;durP2;ratioP2;P2;SDS_P1;SDS_P2;PMS_P1;PMS_P2;Temp;Humidity;BMP_temperature;BMP_pressure;BME280_temperature;BME280_humidity;BME280_pressure;Samples;Min_cycle;Max_cycle;Signal;HPM_P1;HPM_P2
2021/12/24 00:02:24;;;;;;;7.88;7.05;;;10.70;99.90;;;;;;5071196;28;20032;-59
2021/12/24 00:04:50;;;;;;;8.05;6.70;;;10.80;99.90;;;;;;5067393;28;20024;-59
2021/12/24 00:07:16;;;;;;;13.27;8.75;;;10.80;99.90;;;;;;5068802;28;20028;-59
2021/12/24 00:09:42;;;;;;;9.85;7.50;;;10.80;99.90;;;;;;5067500;28;20086;-59
2021/12/24 00:12:14;;;;;;;9.10;7.30;;;10.80;99.90;;;;;;5069011;28;20052;-59
2021/12/24 00:14:44;;;;;;;10.80;7.07;;;10.80;99.90;;;;;;5069433;28;20107;-59
2021/12/24 00:17:14;;;;;;;9.15;7.50;;;10.70;99.90;;;;;;5069518;28;20038;-59
2021/12/24 00:19:49;;;;;;;8.60;7.10;;;10.60;99.90;;;;;;5067131;28;20025;-59
2021/12/24 00:35:41;;;;;;;14.00;7.22;;;10.70;99.90;;;;;;5051999;28;20031;-59
2021/12/24 00:38:10;;;;;;;9.40;7.07;;;10.60;99.90;;;;;;5061725;28;20056;-59
2021/12/24 00:40:43;;;;;;;10.75;7.13;;;10.50;99.90;;;;;;5060599;28;20234;-59
2021/12/24 00:43:10;;;;;;;11.60;7.55;;;10.50;99.90;;;;;;5071015;28;20506;-58
2021/12/24 00:45:39;;;;;;;9.57;7.53;;;10.60;99.90;;;;;;5071918;28;20107;-59
2021/12/24 00:48:07;;;;;;;8.25;7.30;;;10.50;99.90;;;;;;5067990;28;20025;-59
2021/12/24 00:51:17;;;;;;;9.82;6.95;;;10.60;99.90;;;;;;5065116;28;20048;-59
2021/12/24 00:56:16;;;;;;;8.68;6.47;;;10.70;99.90;;;;;;5071896;28;20082;-59
2021/12/24 00:58:43;;;;;;;10.02;6.88;;;10.70;99.90;;;;;;5070094;28;20028;-59
2021/12/24 01:01:11;;;;;;;10.45;7.30;;;10.90;99.90;;;;;;5069339;28;20115;-59
2021/12/24 01:03:37;;;;;;;8.93;6.85;;;10.80;99.90;;;;;;5070514;28;20029;-60
2021/12/24 01:06:04;;;;;;;8.93;6.88;;;10.80;99.90;;;;;;5070309;28;20035;-59
2021/12/24 01:08:30;;;;;;;9.60;6.55;;;10.70;99.90;;;;;;5073304;28;20410;-58
2021/12/24 01:10:59;;;;;;;9.95;7.07;;;10.70;99.90;;;;;;5071385;28;20028;-59
2021/12/24 01:13:26;;;;;;;7.18;6.47;;;10.70;99.90;;;;;;5069380;28;20036;-59
2021/12/24 01:15:59;;;;;;;6.78;5.80;;;10.80;99.90;;;;;;5069435;28;20032;-59
2021/12/24 01:26:18;;;;;;;10.25;6.38;;;10.80;99.90;;;;;;5054642;28;20032;-59
2021/12/24 01:40:38;;;;;;;;;;;10.60;99.90;;;;;;5048464;28;20071;-59
2021/12/24 01:42:48;;;;;;;9.85;6.25;;;10.40;99.90;;;;;;5044458;28;20039;-59
2021/12/24 01:45:16;;;;;;;7.53;6.30;;;10.60;99.90;;;;;;5047573;28;20044;-58
2021/12/24 01:47:42;;;;;;;8.30;6.43;;;10.50;99.90;;;;;;5049552;28;20112;-59
2021/12/24 01:50:08;;;;;;;7.95;6.75;;;10.40;99.90;;;;;;5048680;28;20096;-59
2021/12/24 01:52:34;;;;;;;8.75;6.38;;;10.50;99.90;;;;;;5049363;28;20045;-59
2021/12/24 01:55:00;;;;;;;7.43;6.15;;;10.50;99.90;;;;;;5047090;28;20021;-59
2021/12/24 01:57:26;;;;;;;9.95;7.60;;;10.50;99.90;;;;;;5047470;28;20029;-60
2021/12/24 01:59:52;;;;;;;12.88;6.70;;;10.60;99.90;;;;;;5048467;28;20026;-59
2021/12/24 02:02:17;;;;;;;6.82;6.18;;;10.60;99.90;;;;;;5050621;28;20033;-60
2021/12/24 02:04:43;;;;;;;8.55;6.55;;;10.60;99.90;;;;;;5031836;28;20037;-59
2021/12/24 02:07:09;;;;;;;8.75;6.50;;;10.60;99.90;;;;;;5047256;28;20029;-59
2021/12/24 02:09:36;;;;;;;10.30;6.15;;;10.60;99.90;;;;;;5048568;28;20076;-59
2021/12/24 02:12:06;;;;;;;7.57;6.25;;;10.70;99.90;;;;;;5052940;28;20112;-60
2021/12/24 02:14:36;;;;;;;7.28;6.20;;;10.60;99.90;;;;;;5072728;28;20052;-59
2021/12/24 02:30:35;;;;;;;;;;;10.40;99.90;;;;;;5070972;28;20070;-60
2021/12/24 02:33:03;;;;;;;8.35;6.32;;;10.40;99.90;;;;;;5069063;28;19920;-59
2021/12/24 02:35:29;;;;;;;7.78;6.65;;;10.30;99.90;;;;;;5072722;28;20680;-60
2021/12/24 02:37:54;;;;;;;7.60;6.50;;;10.30;99.90;;;;;;5071282;28;20025;-60
2021/12/24 02:40:21;;;;;;;7.63;6.40;;;10.30;99.90;;;;;;5068619;28;20372;-59
2021/12/24 02:42:52;;;;;;;8.13;6.95;;;10.50;99.90;;;;;;5069743;28;20131;-59
2021/12/24 02:45:18;;;;;;;8.50;6.63;;;10.50;99.90;;;;;;5068629;28;20071;-60
2021/12/24 02:55:57;;;;;;;7.43;6.40;;;10.30;99.90;;;;;;5069443;28;20799;-60
2021/12/24 02:58:23;;;;;;;7.32;6.53;;;10.20;99.90;;;;;;5068318;28;20060;-59
2021/12/24 03:00:49;;;;;;;8.68;6.65;;;10.20;99.90;;;;;;5068274;28;20045;-60
2021/12/24 03:03:15;;;;;;;7.22;6.53;;;10.10;99.90;;;;;;5068408;28;20029;-59
2021/12/24 03:05:41;;;;;;;9.35;6.88;;;10.20;99.90;;;;;;5070602;28;20025;-60
2021/12/24 03:08:06;;;;;;;9.40;6.85;;;10.30;99.90;;;;;;5069779;28;20013;-59
2021/12/24 03:10:35;;;;;;;10.65;7.38;;;10.20;99.90;;;;;;5069443;28;20522;-59
2021/12/24 03:13:01;;;;;;;9.77;6.28;;;10.20;99.90;;;;;;5068431;28;20021;-59
2021/12/24 03:15:27;;;;;;;8.48;6.82;;;10.20;99.90;;;;;;5068296;28;20115;-59
2021/12/24 03:17:56;;;;;;;8.00;7.20;;;10.00;99.90;;;;;;5069712;28;20108;-59
2021/12/24 03:20:23;;;;;;;7.97;6.95;;;10.00;99.90;;;;;;5071748;28;20033;-59
2021/12/24 03:25:16;;;;;;;7.72;6.93;;;10.10;99.90;;;;;;5067298;28;20024;-58
2021/12/24 03:27:41;;;;;;;8.25;6.80;;;9.80;99.90;;;;;;5069317;28;20067;-58
2021/12/24 03:30:08;;;;;;;9.20;7.40;;;9.70;99.90;;;;;;5068023;28;20445;-59
2021/12/24 03:32:33;;;;;;;9.88;7.18;;;9.80;99.90;;;;;;5070874;28;20043;-59
2021/12/24 03:34:59;;;;;;;8.73;6.90;;;9.60;99.90;;;;;;5069069;28;20111;-59
2021/12/24 03:37:25;;;;;;;8.63;6.95;;;9.70;99.90;;;;;;5067597;28;20062;-58
2021/12/24 03:39:51;;;;;;;9.68;7.38;;;9.80;99.90;;;;;;5067232;28;20032;-59
2021/12/24 03:42:16;;;;;;;8.35;6.90;;;9.60;99.90;;;;;;5068070;28;20135;-59
2021/12/24 03:44:49;;;;;;;7.82;6.57;;;9.50;99.90;;;;;;5070181;28;20801;-59
2021/12/24 03:47:18;;;;;;;10.25;7.38;;;9.50;99.90;;;;;;5070653;28;20028;-59
2021/12/24 03:49:55;;;;;;;8.40;6.78;;;9.60;99.90;;;;;;5068860;28;20040;-59
2021/12/24 03:57:32;;;;;;;8.82;6.75;;;9.40;99.90;;;;;;5067167;28;20024;-59
2021/12/24 04:00:13;;;;;;;8.90;6.95;;;9.50;99.90;;;;;;5051519;28;20051;-59
2021/12/24 04:02:38;;;;;;;11.82;6.57;;;9.50;99.90;;;;;;5067404;28;20032;-59
2021/12/24 04:05:05;;;;;;;9.77;6.55;;;9.50;99.90;;;;;;5069236;28;20036;-59
2021/12/24 04:07:30;;;;;;;9.18;7.03;;;9.50;99.90;;;;;;5067513;28;20024;-59
2021/12/24 04:10:06;;;;;;;8.57;6.90;;;9.50;99.90;;;;;;5067465;28;20390;-60
2021/12/24 04:12:34;;;;;;;11.85;7.30;;;9.30;99.90;;;;;;5069624;28;20017;-59
2021/12/24 04:15:00;;;;;;;7.38;6.57;;;9.30;99.90;;;;;;5072202;28;20028;-59
2021/12/24 04:17:25;;;;;;;7.95;7.03;;;9.30;99.90;;;;;;5075498;28;20031;-59
2021/12/24 04:25:20;;;;;;;8.43;6.85;;;9.30;99.90;;;;;;5071456;28;20050;-59
2021/12/24 04:27:46;;;;;;;8.10;6.32;;;9.10;99.90;;;;;;5072498;28;20117;-59
2021/12/24 04:30:16;;;;;;;8.30;7.38;;;9.20;99.90;;;;;;5071430;28;20057;-59
2021/12/24 04:51:22;;;;;;;8.50;6.45;;;9.20;99.90;;;;;;5070671;28;20040;-59
2021/12/24 05:02:35;;;;;;;10.35;7.43;;;9.10;99.90;;;;;;5072932;28;20089;-59
2021/12/24 05:05:23;;;;;;;8.85;6.70;;;9.10;99.90;;;;;;5073312;28;20076;-58
2021/12/24 05:10:16;;;;;;;11.90;6.90;;;9.10;99.90;;;;;;5070933;28;20025;-59
2021/12/24 05:12:42;;;;;;;8.73;6.47;;;9.00;99.90;;;;;;5070382;28;20024;-59
2021/12/24 05:15:10;;;;;;;8.23;6.35;;;9.10;99.90;;;;;;5070584;28;20062;-59
2021/12/24 05:23:04;;;;;;;7.68;6.15;;;9.20;99.90;;;;;;5071174;28;20047;-58
2021/12/24 05:25:30;;;;;;;10.05;6.40;;;9.10;99.90;;;;;;5070425;28;20020;-59
2021/12/24 05:27:56;;;;;;;9.60;6.30;;;9.20;99.90;;;;;;5070018;28;20021;-58
2021/12/24 05:30:23;;;;;;;7.10;6.20;;;9.10;99.90;;;;;;5070271;28;20502;-59
2021/12/24 05:32:49;;;;;;;9.27;6.20;;;9.20;99.90;;;;;;5071257;28;20418;-59
2021/12/24 05:35:15;;;;;;;7.72;6.53;;;9.10;99.90;;;;;;5072880;28;20012;-59
2021/12/24 05:37:41;;;;;;;7.85;6.40;;;9.10;99.90;;;;;;5070138;28;20063;-59
2021/12/24 05:40:08;;;;;;;9.10;6.45;;;9.00;99.90;;;;;;5071255;28;20032;-59
2021/12/24 05:42:33;;;;;;;8.27;6.35;;;8.90;99.90;;;;;;5069761;28;20052;-59
2021/12/24 05:45:04;;;;;;;7.85;5.93;;;9.10;99.90;;;;;;5071733;28;20052;-59
2021/12/24 05:47:31;;;;;;;10.32;6.05;;;9.10;99.90;;;;;;5069889;28;20028;-59
2021/12/24 05:49:56;;;;;;;8.75;6.45;;;9.00;99.90;;;;;;5070037;28;20021;-59
2021/12/24 05:52:23;;;;;;;8.73;6.03;;;9.00;99.90;;;;;;5069658;28;20493;-59
2021/12/24 05:54:48;;;;;;;10.20;6.47;;;9.00;99.90;;;;;;5069709;28;20458;-58
2021/12/24 05:57:14;;;;;;;8.40;6.50;;;8.90;99.90;;;;;;5069845;28;20117;-59
2021/12/24 05:59:40;;;;;;;6.47;5.85;;;8.90;99.90;;;;;;5072020;28;20127;-59
2021/12/24 06:02:06;;;;;;;7.53;6.07;;;8.80;99.90;;;;;;5071006;28;20127;-59
2021/12/24 06:04:32;;;;;;;8.20;6.47;;;8.80;99.90;;;;;;5069077;28;20049;-59
2021/12/24 06:06:58;;;;;;;12.50;7.25;;;8.60;99.90;;;;;;5069571;28;20416;-58
2021/12/24 06:09:24;;;;;;;9.02;6.72;;;8.90;99.90;;;;;;5069925;28;20020;-58
2021/12/24 06:11:50;;;;;;;10.27;6.72;;;8.70;99.90;;;;;;5070753;28;20051;-59
2021/12/24 06:14:16;;;;;;;8.43;6.00;;;8.80;99.90;;;;;;5072044;28;20025;-59
2021/12/24 06:17:00;;;;;;;9.48;6.57;;;8.80;99.90;;;;;;5069203;28;20086;-59
2021/12/24 06:19:26;;;;;;;8.35;6.70;;;8.80;99.90;;;;;;5070627;28;20024;-58
2021/12/24 06:21:53;;;;;;;7.68;6.20;;;8.80;99.90;;;;;;5069000;28;20040;-59
2021/12/24 06:24:19;;;;;;;7.68;6.50;;;9.00;99.90;;;;;;5069292;28;20035;-59
2021/12/24 06:26:46;;;;;;;9.98;6.90;;;9.00;99.90;;;;;;5071275;28;20060;-59
2021/12/24 06:29:11;;;;;;;7.72;6.28;;;8.90;99.90;;;;;;5071292;28;20027;-60
2021/12/24 06:31:37;;;;;;;8.75;6.65;;;8.80;99.90;;;;;;5068923;28;20111;-59
2021/12/24 06:34:03;;;;;;;8.70;6.03;;;8.80;99.90;;;;;;5068312;28;20055;-59
2021/12/24 06:36:33;;;;;;;7.60;5.95;;;8.90;99.90;;;;;;5068685;28;20029;-58
2021/12/24 06:38:59;;;;;;;8.93;6.70;;;8.90;99.90;;;;;;5054815;28;20882;-59
2021/12/24 06:41:25;;;;;;;9.98;6.40;;;8.90;99.90;;;;;;5073137;28;20079;-58
2021/12/24 06:43:51;;;;;;;9.27;7.78;;;9.00;99.90;;;;;;5068273;28;20025;-59
2021/12/24 06:46:17;;;;;;;7.00;6.05;;;8.90;99.90;;;;;;5068793;28;20028;-59
2021/12/24 06:48:43;;;;;;;8.73;6.45;;;8.70;99.90;;;;;;5068549;28;20029;-59
2021/12/24 06:51:09;;;;;;;10.43;6.90;;;8.70;99.90;;;;;;5068671;28;20035;-59
2021/12/24 06:53:34;;;;;;;7.68;6.18;;;8.60;99.90;;;;;;5071245;28;20067;-59
2021/12/24 06:56:00;;;;;;;8.02;6.32;;;8.60;99.90;;;;;;5069760;28;20540;-59
2021/12/24 06:58:26;;;;;;;10.50;7.18;;;8.50;99.90;;;;;;5068156;28;20025;-59
2021/12/24 07:00:52;;;;;;;8.98;7.20;;;8.60;99.90;;;;;;5068181;28;20040;-59
2021/12/24 07:03:17;;;;;;;8.93;6.93;;;8.60;99.90;;;;;;5068367;28;20017;-60
2021/12/24 07:05:43;;;;;;;8.15;7.18;;;8.50;99.90;;;;;;5070395;28;20029;-58
2021/12/24 07:08:09;;;;;;;9.43;7.38;;;8.50;99.90;;;;;;5069971;28;20398;-57
2021/12/24 07:10:34;;;;;;;9.63;7.72;;;8.40;99.90;;;;;;5067978;28;20024;-58
2021/12/24 07:13:00;;;;;;;10.35;6.97;;;8.40;99.90;;;;;;5067752;28;20021;-56
2021/12/24 07:15:26;;;;;;;9.93;7.00;;;8.40;99.90;;;;;;5067773;28;20452;-56
2021/12/24 07:17:51;;;;;;;7.93;6.53;;;8.50;99.90;;;;;;5069307;28;20800;-54
2021/12/24 07:20:17;;;;;;;8.65;7.05;;;8.40;99.90;;;;;;5071829;28;20075;-56
2021/12/24 07:22:43;;;;;;;8.80;6.80;;;8.40;99.90;;;;;;5068206;28;20441;-59
2021/12/24 07:25:09;;;;;;;9.55;7.18;;;8.40;99.90;;;;;;5067651;28;20017;-59
2021/12/24 07:27:36;;;;;;;9.18;6.57;;;8.20;99.90;;;;;;5067399;28;20048;-58
2021/12/24 07:30:04;;;;;;;9.02;7.15;;;8.20;99.90;;;;;;5067860;28;20107;-56
2021/12/24 07:32:31;;;;;;;9.52;7.28;;;8.10;99.90;;;;;;5071300;28;20048;-58
2021/12/24 07:34:56;;;;;;;8.55;6.97;;;8.10;99.90;;;;;;5069772;28;20483;-59
2021/12/24 07:37:22;;;;;;;9.02;6.55;;;8.10;99.90;;;;;;5067634;28;20079;-56
2021/12/24 07:39:48;;;;;;;9.18;7.05;;;8.20;99.90;;;;;;5067279;28;20053;-57
2021/12/24 07:42:14;;;;;;;11.00;6.85;;;8.00;99.90;;;;;;5067459;28;20041;-58
2021/12/24 07:44:39;;;;;;;14.02;7.40;;;8.20;99.90;;;;;;5070234;28;20079;-58
2021/12/24 07:47:14;;;;;;;9.98;7.65;;;8.10;99.90;;;;;;5068745;28;20577;-58
2021/12/24 07:49:42;;;;;;;9.93;7.43;;;8.20;99.90;;;;;;5067734;28;20025;-58
2021/12/24 07:52:08;;;;;;;9.77;6.90;;;8.10;99.90;;;;;;5067458;28;20475;-59
2021/12/24 07:54:54;;;;;;;12.52;7.07;;;8.20;99.90;;;;;;5067323;28;20033;-59
2021/12/24 07:57:20;;;;;;;10.40;7.80;;;8.10;99.90;;;;;;5069070;28;20025;-59
2021/12/24 07:59:46;;;;;;;11.98;7.93;;;8.00;99.90;;;;;;5068914;28;20150;-59
2021/12/24 08:02:21;;;;;;;13.18;9.02;;;8.00;99.90;;;;;;5068928;28;20033;-59
2021/12/24 08:04:47;;;;;;;9.70;8.00;;;8.00;99.90;;;;;;5067506;28;20104;-59
2021/12/24 08:07:14;;;;;;;10.02;7.82;;;8.10;99.90;;;;;;5067142;28;20581;-59
2021/12/24 08:09:40;;;;;;;10.10;7.70;;;8.20;99.90;;;;;;5067483;28;20017;-59
2021/12/24 08:12:08;;;;;;;11.63;7.40;;;8.20;99.90;;;;;;5067442;28;20025;-59
2021/12/24 08:14:34;;;;;;;9.60;7.45;;;8.30;99.90;;;;;;5070409;28;20029;-59
2021/12/24 08:17:00;;;;;;;11.77;7.57;;;8.40;99.90;;;;;;5068500;28;20496;-59
2021/12/24 08:19:26;;;;;;;9.73;7.13;;;8.60;99.90;;;;;;5067159;28;20024;-59
2021/12/24 08:21:52;;;;;;;7.88;6.75;;;8.40;99.90;;;;;;5067011;28;20045;-59
2021/12/24 08:24:18;;;;;;;8.40;7.22;;;8.50;99.90;;;;;;5067896;28;20025;-59
2021/12/24 08:26:44;;;;;;;8.55;6.50;;;8.50;99.90;;;;;;5069497;28;20086;-59
2021/12/24 08:29:09;;;;;;;10.73;7.00;;;8.40;99.90;;;;;;5068345;28;20024;-59
2021/12/24 08:31:36;;;;;;;7.95;6.82;;;8.50;99.90;;;;;;5066964;28;20100;-59
2021/12/24 08:34:04;;;;;;;9.63;6.30;;;8.60;99.90;;;;;;5067063;28;20044;-59
2021/12/24 08:36:30;;;;;;;7.00;6.18;;;8.60;99.90;;;;;;5068548;28;20078;-58
2021/12/24 08:38:56;;;;;;;9.68;5.75;;;8.80;99.90;;;;;;5067961;28;20017;-58
2021/12/24 08:41:23;;;;;;;8.23;6.03;;;9.00;99.90;;;;;;5070154;28;20044;-58
2021/12/24 08:43:49;;;;;;;8.38;6.68;;;8.80;99.90;;;;;;5066425;28;20103;-58
2021/12/24 08:46:14;;;;;;;7.40;6.25;;;8.90;99.90;;;;;;5067223;28;20462;-59
2021/12/24 08:48:41;;;;;;;9.27;6.25;;;9.10;99.90;;;;;;5067009;28;20052;-58
2021/12/24 08:51:06;;;;;;;9.90;5.72;;;9.00;99.90;;;;;;5067003;28;20037;-59
2021/12/24 08:53:32;;;;;;;9.27;6.05;;;9.20;99.90;;;;;;5070447;28;20035;-59
2021/12/24 08:55:58;;;;;;;8.95;6.18;;;9.30;99.90;;;;;;5068110;28;20044;-56
2021/12/24 08:58:24;;;;;;;7.80;6.07;;;9.20;99.90;;;;;;5068396;28;20498;-57
2021/12/24 09:00:50;;;;;;;9.57;5.50;;;9.90;99.90;;;;;;5070573;28;20040;-57
2021/12/24 09:03:15;;;;;;;6.60;5.03;;;10.00;99.90;;;;;;5070717;28;20097;-60
2021/12/24 09:05:41;;;;;;;7.18;5.43;;;9.80;99.90;;;;;;5073119;28;20544;-56
2021/12/24 09:08:07;;;;;;;8.50;6.43;;;10.10;99.90;;;;;;5072300;28;20033;-59
2021/12/24 09:10:33;;;;;;;9.88;6.28;;;10.20;99.90;;;;;;5070640;28;20055;-59
2021/12/24 09:13:00;;;;;;;8.20;5.65;;;10.20;99.90;;;;;;5069673;28;20028;-59
2021/12/24 09:15:30;;;;;;;7.75;5.15;;;10.50;99.90;;;;;;5071775;28;20499;-58
2021/12/24 09:18:00;;;;;;;8.75;5.25;;;10.60;99.90;;;;;;5071132;28;20025;-58
2021/12/24 09:20:32;;;;;;;6.60;4.80;;;10.80;99.90;;;;;;5069943;28;20103;-59
2021/12/24 09:23:00;;;;;;;7.75;4.82;;;11.00;99.90;;;;;;5072139;28;20501;-59
2021/12/24 09:25:26;;;;;;;6.95;4.60;;;11.10;99.90;;;;;;5070423;28;20024;-57
2021/12/24 09:27:55;;;;;;;6.35;4.95;;;11.40;99.90;;;;;;5069747;28;20074;-59
2021/12/24 09:30:21;;;;;;;6.30;4.32;;;11.70;99.90;;;;;;5070080;28;20509;-59
2021/12/24 09:32:47;;;;;;;6.40;4.32;;;11.80;99.90;;;;;;5071528;28;20115;-59
2021/12/24 09:35:12;;;;;;;7.30;4.40;;;12.00;99.90;;;;;;5072577;28;20032;-59
2021/12/24 09:37:40;;;;;;;6.47;4.30;;;12.10;99.90;;;;;;5069939;28;20036;-59
2021/12/24 09:40:09;;;;;;;6.13;4.50;;;12.30;99.90;;;;;;5069669;28;20410;-59
2021/12/24 09:42:35;;;;;;;5.85;4.72;;;11.80;99.90;;;;;;5069554;28;20482;-59
2021/12/24 09:45:03;;;;;;;6.10;4.55;;;11.70;99.90;;;;;;5070550;28;20028;-59
2021/12/24 09:47:29;;;;;;;6.18;4.35;;;12.30;99.90;;;;;;5070014;28;20075;-59
2021/12/24 09:49:55;;;;;;;7.10;4.43;;;12.20;99.90;;;;;;5069625;28;20051;-59
2021/12/24 09:52:21;;;;;;;6.53;4.63;;;12.20;99.90;;;;;;5069352;28;20104;-59
2021/12/24 09:54:48;;;;;;;9.27;5.07;;;12.10;99.90;;;;;;5071265;28;20024;-59
2021/12/24 09:57:14;;;;;;;5.78;4.53;;;11.90;99.90;;;;;;5069497;28;20510;-59
2021/12/24 09:59:40;;;;;;;9.25;4.65;;;11.80;99.90;;;;;;5071798;28;20032;-59
2021/12/24 10:02:08;;;;;;;7.00;4.68;;;12.10;99.90;;;;;;5071209;28;20041;-58
2021/12/24 10:04:35;;;;;;;7.13;4.25;;;12.60;99.90;;;;;;5069822;28;20027;-58
2021/12/24 10:07:04;;;;;;;6.13;4.25;;;12.80;99.90;;;;;;5069305;28;20021;-58
2021/12/24 10:09:32;;;;;;;4.93;4.43;;;12.90;99.90;;;;;;5068331;28;20019;-58
2021/12/24 10:12:13;;;;;;;4.65;4.05;;;12.50;99.90;;;;;;5069907;28;20033;-58
2021/12/24 10:14:47;;;;;;;6.53;4.38;;;12.80;99.90;;;;;;5069053;28;20154;-58
2021/12/24 10:17:26;;;;;;;6.53;4.35;;;12.70;99.90;;;;;;5071507;28;20038;-59
2021/12/24 10:19:55;;;;;;;10.20;4.55;;;12.50;99.90;;;;;;5068850;28;20020;-59
2021/12/24 10:22:21;;;;;;;6.43;4.00;;;12.80;99.90;;;;;;5069014;28;20040;-58
2021/12/24 10:25:09;;;;;;;5.03;3.85;;;13.10;99.90;;;;;;5068840;28;20020;-58
2021/12/24 10:27:35;;;;;;;6.07;4.03;;;13.30;99.90;;;;;;5071689;28;20028;-58
2021/12/24 10:30:18;;;;;;;6.15;4.00;;;12.90;99.90;;;;;;5069943;28;20517;-59
2021/12/24 10:32:44;;;;;;;5.80;3.58;;;13.80;99.90;;;;;;5069796;28;20134;-59
2021/12/24 10:35:28;;;;;;;4.68;3.90;;;13.80;99.90;;;;;;5071780;28;20044;-59
2021/12/24 10:38:09;;;;;;;6.22;3.60;;;13.90;99.90;;;;;;5058782;28;20398;-59
2021/12/24 10:40:35;;;;;;;6.05;4.03;;;14.40;99.90;;;;;;5058344;28;20507;-59
2021/12/24 10:43:01;;;;;;;6.30;3.80;;;14.30;99.90;;;;;;5071868;28;20017;-58
2021/12/24 10:45:28;;;;;;;5.28;3.72;;;14.30;99.90;;;;;;5069631;28;20056;-59
2021/12/24 10:47:54;;;;;;;5.80;3.70;;;14.30;99.90;;;;;;5067760;28;20029;-58
2021/12/24 10:55:35;;;;;;;5.38;4.10;;;15.60;99.90;;;;;;5068880;28;20101;-59
2021/12/24 10:58:03;;;;;;;5.30;3.88;;;15.30;99.90;;;;;;5064929;28;20047;-59
2021/12/24 11:00:38;;;;;;;8.20;4.25;;;15.90;99.90;;;;;;5064763;28;20035;-60
2021/12/24 11:03:08;;;;;;;7.03;4.25;;;16.10;99.90;;;;;;5066358;28;20054;-59
2021/12/24 11:05:45;;;;;;;5.82;4.53;;;16.10;99.90;;;;;;5067309;28;20020;-59
2021/12/24 11:08:14;;;;;;;6.90;4.00;;;16.10;99.90;;;;;;5068319;28;20628;-58
2021/12/24 11:10:49;;;;;;;4.75;4.00;;;16.10;99.90;;;;;;5066540;28;20059;-58
2021/12/24 11:13:21;;;;;;;4.28;3.28;;;16.30;99.90;;;;;;5066145;28;20025;-59
2021/12/24 11:15:51;;;;;;;7.57;3.78;;;16.10;99.90;;;;;;5067498;28;20032;-59
2021/12/24 11:18:28;;;;;;;6.95;4.25;;;16.40;99.90;;;;;;5069361;28;20036;-59
2021/12/24 11:20:59;;;;;;;9.02;3.95;;;16.20;99.90;;;;;;5067549;28;20036;-57
2021/12/24 11:23:33;;;;;;;7.32;3.88;;;16.30;99.90;;;;;;5067658;28;20036;-59
2021/12/24 11:26:03;;;;;;;;;;;16.70;99.90;;;;;;5062305;28;20028;-59
2021/12/24 11:28:28;;;;;;;5.03;3.67;;;17.10;99.90;;;;;;5056072;28;19908;-56
2021/12/24 11:30:58;;;;;;;9.85;3.80;;;17.00;99.90;;;;;;5060763;28;20745;-59
2021/12/24 11:33:29;;;;;;;4.85;3.40;;;16.90;99.90;;;;;;5060851;28;20495;-59
2021/12/24 11:35:57;;;;;;;6.78;3.70;;;16.80;99.90;;;;;;5052263;28;20108;-60
2021/12/24 11:38:25;;;;;;;7.50;3.92;;;17.00;99.90;;;;;;5051644;28;20047;-58
2021/12/24 11:40:53;;;;;;;6.95;3.50;;;17.00;99.90;;;;;;5056204;28;20036;-57
2021/12/24 11:43:21;;;;;;;6.53;4.13;;;17.30;99.90;;;;;;5056637;28;20082;-56
2021/12/24 11:45:48;;;;;;;7.22;4.45;;;17.30;99.90;;;;;;5051936;28;20044;-57
2021/12/24 11:48:14;;;;;;;4.90;3.60;;;17.60;99.90;;;;;;5062984;28;20391;-58
2021/12/24 11:50:41;;;;;;;7.97;4.40;;;17.50;99.90;;;;;;5060692;28;20039;-58
2021/12/24 11:53:09;;;;;;;8.27;4.72;;;17.50;99.90;;;;;;5051782;28;20513;-58
2021/12/24 11:55:38;;;;;;;6.68;4.43;;;17.60;99.90;;;;;;5068139;28;20115;-56
2021/12/24 11:58:15;;;;;;;5.78;4.30;;;17.70;99.90;;;;;;5063211;28;20021;-59
2021/12/24 12:00:43;;;;;;;5.63;3.92;;;17.40;99.90;;;;;;5069250;28;20031;-59
2021/12/24 12:03:28;;;;;;;5.57;3.80;;;17.20;99.90;;;;;;5066698;28;20071;-59
2021/12/24 12:05:54;;;;;;;5.13;3.95;;;17.30;99.90;;;;;;5054749;28;20047;-58
2021/12/24 12:08:26;;;;;;;7.00;3.75;;;17.60;99.90;;;;;;5067387;28;20499;-59
2021/12/24 12:10:59;;;;;;;4.85;3.65;;;17.30;99.90;;;;;;5069087;28;20029;-58
2021/12/24 12:13:52;;;;;;;10.32;4.30;;;17.20;99.90;;;;;;5068086;28;20425;-58
2021/12/24 12:16:23;;;;;;;9.85;4.90;;;17.30;99.90;;;;;;5066923;28;20029;-57
2021/12/24 12:19:03;;;;;;;10.13;5.60;;;17.30;99.90;;;;;;5071272;28;20024;-59
2021/12/24 12:21:39;;;;;;;14.95;9.23;;;17.40;99.90;;;;;;5067616;28;20103;-57
2021/12/24 12:26:43;;;;;;;11.02;6.88;;;17.70;99.90;;;;;;5066027;28;20041;-59
2021/12/24 12:29:30;;;;;;;18.80;12.40;;;17.60;99.90;;;;;;5065789;28;20460;-59
2021/12/24 12:32:04;;;;;;;16.48;5.85;;;17.30;99.90;;;;;;5065416;28;20494;-58
2021/12/24 12:34:39;;;;;;;9.55;5.07;;;17.50;99.90;;;;;;5060226;28;20098;-59
2021/12/24 12:37:18;;;;;;;7.50;4.07;;;17.50;99.90;;;;;;5069009;28;20461;-58
2021/12/24 12:39:46;;;;;;;6.65;4.70;;;17.30;99.90;;;;;;5073107;28;20028;-58
2021/12/24 12:42:17;;;;;;;6.28;4.32;;;17.40;99.90;;;;;;5071089;28;20029;-58
2021/12/24 12:44:48;;;;;;;7.15;4.47;;;17.50;99.90;;;;;;5066851;28;20025;-59
2021/12/24 12:47:21;;;;;;;10.05;4.35;;;17.50;99.90;;;;;;5066955;28;20115;-58
2021/12/24 12:49:48;;;;;;;7.75;4.82;;;17.50;99.90;;;;;;5062822;28;20098;-59
2021/12/24 12:52:31;;;;;;;6.35;3.97;;;17.60;99.90;;;;;;5064271;28;20132;-58
2021/12/24 12:54:58;;;;;;;8.27;4.43;;;17.40;99.90;;;;;;5068413;28;20055;-59
2021/12/24 12:57:36;;;;;;;6.22;3.88;;;17.30;99.90;;;;;;5069590;28;20589;-58
2021/12/24 13:00:08;;;;;;;7.80;5.07;;;17.30;99.90;;;;;;5069660;28;20036;-57
2021/12/24 13:05:54;;;;;;;6.97;4.55;;;17.30;99.90;;;;;;5069975;28;20033;-58
2021/12/24 13:08:25;;;;;;;8.07;5.25;;;17.30;99.90;;;;;;5070746;28;20031;-58
2021/12/24 13:11:23;;;;;;;15.05;8.30;;;17.20;99.90;;;;;;5070052;28;20021;-58
2021/12/24 13:13:56;;;;;;;8.93;5.05;;;17.20;99.90;;;;;;5067544;28;20037;-58
2021/12/24 13:16:32;;;;;;;6.82;4.07;;;17.00;99.90;;;;;;5070859;28;24783;-54
2021/12/24 13:19:19;;;;;;;7.82;4.93;;;17.00;99.90;;;;;;5066776;28;20075;-59
2021/12/24 13:22:31;;;;;;;9.73;4.60;;;16.80;99.90;;;;;;5067320;28;20041;-59
2021/12/24 13:25:11;;;;;;;5.65;3.88;;;16.70;99.90;;;;;;5068803;28;20395;-58
2021/12/24 13:27:51;;;;;;;7.85;4.35;;;16.70;99.90;;;;;;5070591;28;20058;-59
2021/12/24 13:30:17;;;;;;;7.10;4.55;;;16.90;99.90;;;;;;5085840;28;20043;-58
2021/12/24 13:32:51;;;;;;;7.18;4.35;;;16.60;99.90;;;;;;5068400;28;20461;-57
2021/12/24 13:35:24;;;;;;;9.80;4.53;;;16.40;99.90;;;;;;5070322;28;20533;-58
2021/12/24 13:37:51;;;;;;;8.57;4.55;;;16.30;99.90;;;;;;5071220;28;20495;-59
2021/12/24 13:40:23;;;;;;;9.30;4.97;;;16.60;99.90;;;;;;5078670;28;20036;-56
2021/12/24 13:42:57;;;;;;;9.52;5.00;;;16.60;99.90;;;;;;5070697;28;20151;-57
2021/12/24 13:45:25;;;;;;;9.18;4.75;;;16.70;99.90;;;;;;5067412;28;20021;-58
2021/12/24 13:48:06;;;;;;;7.60;4.68;;;16.60;99.90;;;;;;5068753;28;20036;-58
2021/12/24 13:56:37;;;;;;;9.75;5.32;;;16.70;99.90;;;;;;5069974;28;20032;-59
2021/12/24 13:59:04;;;;;;;10.43;4.88;;;16.70;99.90;;;;;;5069121;28;20033;-58
2021/12/24 14:01:32;;;;;;;9.07;5.70;;;16.70;99.90;;;;;;5053549;28;20506;-59
2021/12/24 14:03:59;;;;;;;9.52;6.07;;;16.60;99.90;;;;;;5068764;28;20029;-58
2021/12/24 14:06:39;;;;;;;7.22;5.03;;;16.50;99.90;;;;;;5070044;28;20037;-58
2021/12/24 14:09:09;;;;;;;11.13;5.70;;;16.50;99.90;;;;;;5069198;28;20514;-59
2021/12/24 14:11:36;;;;;;;11.98;6.50;;;16.50;99.90;;;;;;5068954;28;20043;-59
2021/12/24 14:14:08;;;;;;;25.13;13.45;;;16.50;99.90;;;;;;5069616;28;20387;-59
2021/12/24 14:19:27;;;;;;;14.10;8.90;;;16.50;99.90;;;;;;5073235;28;20024;-58
2021/12/24 14:21:53;;;;;;;11.05;5.90;;;16.50;99.90;;;;;;5069857;28;20070;-59
2021/12/24 14:24:19;;;;;;;9.43;5.85;;;16.50;99.90;;;;;;5070454;28;20047;-58
2021/12/24 14:26:55;;;;;;;8.98;6.07;;;16.20;99.90;;;;;;5071245;28;20021;-58
2021/12/24 14:29:41;;;;;;;9.07;4.97;;;16.20;99.90;;;;;;5071774;28;20498;-59
2021/12/24 14:32:08;;;;;;;12.65;5.40;;;16.10;99.90;;;;;;5071713;28;20036;-59
2021/12/24 14:34:44;;;;;;;12.40;7.00;;;16.10;99.90;;;;;;5068818;28;20016;-59
2021/12/24 14:37:24;;;;;;;10.45;6.97;;;15.90;99.90;;;;;;5068500;28;20063;-59
2021/12/24 14:40:09;;;;;;;11.68;6.80;;;16.10;99.90;;;;;;5068730;28;20024;-59
2021/12/24 14:42:59;;;;;;;11.85;6.50;;;16.20;99.90;;;;;;5068657;28;20115;-59
2021/12/24 14:45:45;;;;;;;9.82;7.05;;;16.00;99.90;;;;;;5070102;28;20024;-59
2021/12/24 14:48:21;;;;;;;16.63;10.15;;;15.90;99.90;;;;;;5054129;28;20025;-59
2021/12/24 14:51:01;;;;;;;12.70;7.35;;;15.70;99.90;;;;;;5070781;28;20394;-59
2021/12/24 14:53:40;;;;;;;13.02;7.35;;;15.40;99.90;;;;;;5072555;28;20101;-59
2021/12/24 14:56:19;;;;;;;20.45;8.00;;;15.50;99.90;;;;;;5071236;28;20103;-59
2021/12/24 14:58:58;;;;;;;11.18;6.97;;;15.70;99.90;;;;;;5068203;28;20064;-59
2021/12/24 15:01:37;;;;;;;15.63;7.50;;;15.70;99.90;;;;;;5067961;28;20522;-59
2021/12/24 15:04:05;;;;;;;20.23;7.35;;;15.60;99.90;;;;;;5068347;28;20328;-62
2021/12/24 15:06:32;;;;;;;18.17;8.18;;;15.60;99.90;;;;;;5070613;28;20032;-64
2021/12/24 15:09:00;;;;;;;36.63;10.77;;;15.50;99.90;;;;;;5068903;28;20033;-58